Main page
METAR-TAF:

METAR-TAF

Airports :

Louang Namtha Airport

Luang Namtha, Laos

latitude: 20-57-38N, longitude: 101-24-09E, elevation: 600 m

Current weather observation

The report was made 40 minutes ago, at 06:00 UTC
Wind 8 kt from the West
Temperature 32°C
Humidity 36%
Pressure 1014 hPa
Visibility 10 km or more
Few clouds at a height of 2000 ft

METAR: VLLN 240600Z 27008KT 9999 FEW020 32/15 Q1014 NOSIG

Time: 12:10 (06:40 UTC)

Forecast

The report was made 1 hour and 40 minutes ago, at 05:00 UTC
Forecast valid from 24 at 06 UTC to 25 at 06 UTC
Wind 4 kt from the West
Visibility 10 km or more
Few clouds at a height of 2000 ft
Few clouds at a height of 10000 ft

TAF: VLLN 240500Z 2406/2506 27004KT 9999 FEW020 FEW100

Weather observations and forecasts of more than 4000 airports (METAR and TAF reports).

The available stations are represented by yellow and red dots on the map.

Hover mouse over dot to see the name of the station.

Then click to see weather observations and forecasts.

To change the map : click on the green buttons with a black cross to zoom in, on the green button with a dash to zoom out, or on the green arrows for adjacent maps.


METAR-TAF: